sensor_id;sensor_type;location;lat;lon;timestamp;P1;durP1;ratioP1;P2;durP2;ratioP2
29812;SDS011;16707;48.106;11.548;2023-05-16T00:02:10;4.10;;;3.63;;
29812;SDS011;16707;48.106;11.548;2023-05-16T00:04:43;4.30;;;3.67;;
29812;SDS011;16707;48.106;11.548;2023-05-16T00:07:13;4.97;;;4.00;;
29812;SDS011;16707;48.106;11.548;2023-05-16T00:09:43;6.18;;;3.80;;
29812;SDS011;16707;48.106;11.548;2023-05-16T00:12:11;5.63;;;4.05;;
29812;SDS011;16707;48.106;11.548;2023-05-16T00:14:43;4.90;;;4.32;;
29812;SDS011;16707;48.106;11.548;2023-05-16T00:17:18;6.00;;;4.15;;
29812;SDS011;16707;48.106;11.548;2023-05-16T00:19:46;4.80;;;3.58;;
29812;SDS011;16707;48.106;11.548;2023-05-16T00:22:22;6.38;;;3.80;;
29812;SDS011;16707;48.106;11.548;2023-05-16T00:24:49;5.55;;;3.92;;
29812;SDS011;16707;48.106;11.548;2023-05-16T00:27:19;4.45;;;3.92;;
29812;SDS011;16707;48.106;11.548;2023-05-16T00:29:48;4.78;;;4.13;;
29812;SDS011;16707;48.106;11.548;2023-05-16T00:32:18;5.10;;;3.88;;
29812;SDS011;16707;48.106;11.548;2023-05-16T00:34:44;5.93;;;4.00;;
29812;SDS011;16707;48.106;11.548;2023-05-16T00:37:14;5.00;;;4.20;;
29812;SDS011;16707;48.106;11.548;2023-05-16T00:39:43;5.72;;;4.35;;
29812;SDS011;16707;48.106;11.548;2023-05-16T00:42:10;5.13;;;3.95;;
29812;SDS011;16707;48.106;11.548;2023-05-16T00:44:40;4.75;;;3.67;;
29812;SDS011;16707;48.106;11.548;2023-05-16T00:47:09;5.10;;;4.07;;
29812;SDS011;16707;48.106;11.548;2023-05-16T00:49:39;5.03;;;4.22;;
29812;SDS011;16707;48.106;11.548;2023-05-16T00:52:12;5.05;;;4.00;;
29812;SDS011;16707;48.106;11.548;2023-05-16T00:54:42;6.18;;;3.70;;
29812;SDS011;16707;48.106;11.548;2023-05-16T00:57:10;5.75;;;3.97;;
29812;SDS011;16707;48.106;11.548;2023-05-16T00:59:37;4.40;;;3.63;;
29812;SDS011;16707;48.106;11.548;2023-05-16T01:02:06;5.30;;;3.83;;
29812;SDS011;16707;48.106;11.548;2023-05-16T01:04:37;5.18;;;3.88;;
29812;SDS011;16707;48.106;11.548;2023-05-16T01:07:05;4.55;;;3.30;;
29812;SDS011;16707;48.106;11.548;2023-05-16T01:09:41;4.45;;;3.83;;
29812;SDS011;16707;48.106;11.548;2023-05-16T01:12:12;5.47;;;3.97;;
29812;SDS011;16707;48.106;11.548;2023-05-16T01:14:54;4.65;;;3.80;;
29812;SDS011;16707;48.106;11.548;2023-05-16T01:17:28;6.07;;;4.25;;
29812;SDS011;16707;48.106;11.548;2023-05-16T01:20:07;5.20;;;4.05;;
29812;SDS011;16707;48.106;11.548;2023-05-16T01:22:58;5.93;;;3.90;;
29812;SDS011;16707;48.106;11.548;2023-05-16T01:25:55;4.20;;;3.60;;
29812;SDS011;16707;48.106;11.548;2023-05-16T01:30:59;5.38;;;4.22;;
29812;SDS011;16707;48.106;11.548;2023-05-16T01:33:27;6.00;;;4.40;;
29812;SDS011;16707;48.106;11.548;2023-05-16T01:35:57;6.03;;;4.35;;
29812;SDS011;16707;48.106;11.548;2023-05-16T01:38:29;5.82;;;4.05;;
29812;SDS011;16707;48.106;11.548;2023-05-16T01:41:03;5.40;;;4.13;;
29812;SDS011;16707;48.106;11.548;2023-05-16T01:43:45;6.28;;;4.32;;
29812;SDS011;16707;48.106;11.548;2023-05-16T01:46:26;6.40;;;4.75;;
29812;SDS011;16707;48.106;11.548;2023-05-16T01:48:57;6.35;;;4.50;;
29812;SDS011;16707;48.106;11.548;2023-05-16T01:53:59;6.32;;;4.75;;
29812;SDS011;16707;48.106;11.548;2023-05-16T01:56:42;5.85;;;4.38;;
29812;SDS011;16707;48.106;11.548;2023-05-16T01:59:16;6.28;;;4.70;;
29812;SDS011;16707;48.106;11.548;2023-05-16T02:01:44;6.25;;;4.88;;
29812;SDS011;16707;48.106;11.548;2023-05-16T02:04:11;8.95;;;5.60;;
29812;SDS011;16707;48.106;11.548;2023-05-16T02:06:47;5.97;;;4.70;;
29812;SDS011;16707;48.106;11.548;2023-05-16T02:09:18;6.55;;;4.60;;
29812;SDS011;16707;48.106;11.548;2023-05-16T02:11:48;6.55;;;4.45;;
29812;SDS011;16707;48.106;11.548;2023-05-16T02:14:17;5.18;;;4.30;;
29812;SDS011;16707;48.106;11.548;2023-05-16T02:17:04;6.57;;;4.40;;
29812;SDS011;16707;48.106;11.548;2023-05-16T02:19:34;6.07;;;4.28;;
29812;SDS011;16707;48.106;11.548;2023-05-16T02:22:02;6.07;;;4.25;;
29812;SDS011;16707;48.106;11.548;2023-05-16T02:24:33;6.82;;;4.88;;
29812;SDS011;16707;48.106;11.548;2023-05-16T02:27:04;7.07;;;4.70;;
29812;SDS011;16707;48.106;11.548;2023-05-16T02:29:41;5.85;;;4.43;;
29812;SDS011;16707;48.106;11.548;2023-05-16T02:32:16;5.90;;;4.53;;
29812;SDS011;16707;48.106;11.548;2023-05-16T02:34:49;6.93;;;5.13;;
29812;SDS011;16707;48.106;11.548;2023-05-16T02:37:16;5.72;;;4.45;;
29812;SDS011;16707;48.106;11.548;2023-05-16T02:39:46;5.70;;;4.22;;
29812;SDS011;16707;48.106;11.548;2023-05-16T02:42:19;5.20;;;4.18;;
29812;SDS011;16707;48.106;11.548;2023-05-16T02:44:47;7.65;;;6.05;;
29812;SDS011;16707;48.106;11.548;2023-05-16T02:47:18;5.75;;;4.30;;
29812;SDS011;16707;48.106;11.548;2023-05-16T02:49:45;6.60;;;5.03;;
29812;SDS011;16707;48.106;11.548;2023-05-16T02:52:14;6.28;;;5.07;;
29812;SDS011;16707;48.106;11.548;2023-05-16T02:54:41;7.13;;;4.93;;
29812;SDS011;16707;48.106;11.548;2023-05-16T02:57:08;6.43;;;5.03;;
29812;SDS011;16707;48.106;11.548;2023-05-16T02:59:36;6.28;;;4.72;;
29812;SDS011;16707;48.106;11.548;2023-05-16T03:02:04;7.13;;;4.60;;
29812;SDS011;16707;48.106;11.548;2023-05-16T03:04:35;6.80;;;5.03;;
29812;SDS011;16707;48.106;11.548;2023-05-16T03:07:05;6.80;;;5.55;;
29812;SDS011;16707;48.106;11.548;2023-05-16T03:09:35;5.80;;;4.68;;
29812;SDS011;16707;48.106;11.548;2023-05-16T03:12:02;6.88;;;4.82;;
29812;SDS011;16707;48.106;11.548;2023-05-16T03:14:32;7.70;;;4.88;;
29812;SDS011;16707;48.106;11.548;2023-05-16T03:17:08;7.40;;;5.45;;
29812;SDS011;16707;48.106;11.548;2023-05-16T03:19:37;6.85;;;4.93;;
29812;SDS011;16707;48.106;11.548;2023-05-16T03:22:10;7.50;;;4.88;;
29812;SDS011;16707;48.106;11.548;2023-05-16T03:24:37;6.68;;;5.10;;
29812;SDS011;16707;48.106;11.548;2023-05-16T03:27:06;7.30;;;5.25;;
29812;SDS011;16707;48.106;11.548;2023-05-16T03:29:39;6.93;;;5.13;;
29812;SDS011;16707;48.106;11.548;2023-05-16T03:32:13;8.20;;;5.53;;
29812;SDS011;16707;48.106;11.548;2023-05-16T03:34:40;7.18;;;5.60;;
29812;SDS011;16707;48.106;11.548;2023-05-16T03:37:07;6.25;;;5.22;;
29812;SDS011;16707;48.106;11.548;2023-05-16T03:39:35;8.30;;;5.55;;
29812;SDS011;16707;48.106;11.548;2023-05-16T03:42:02;7.82;;;5.90;;
29812;SDS011;16707;48.106;11.548;2023-05-16T03:44:34;9.40;;;5.30;;
29812;SDS011;16707;48.106;11.548;2023-05-16T03:47:01;8.02;;;5.70;;
29812;SDS011;16707;48.106;11.548;2023-05-16T03:49:30;8.40;;;5.57;;
29812;SDS011;16707;48.106;11.548;2023-05-16T03:51:57;7.45;;;5.50;;
29812;SDS011;16707;48.106;11.548;2023-05-16T03:54:24;9.63;;;6.10;;
29812;SDS011;16707;48.106;11.548;2023-05-16T03:56:53;7.35;;;5.85;;
29812;SDS011;16707;48.106;11.548;2023-05-16T03:59:23;6.60;;;5.72;;
29812;SDS011;16707;48.106;11.548;2023-05-16T04:01:53;8.43;;;5.53;;
29812;SDS011;16707;48.106;11.548;2023-05-16T04:04:20;8.80;;;6.03;;
29812;SDS011;16707;48.106;11.548;2023-05-16T04:06:52;10.50;;;5.93;;
29812;SDS011;16707;48.106;11.548;2023-05-16T04:09:25;10.93;;;6.63;;
29812;SDS011;16707;48.106;11.548;2023-05-16T04:11:55;8.02;;;5.75;;
29812;SDS011;16707;48.106;11.548;2023-05-16T04:14:25;8.55;;;5.72;;
29812;SDS011;16707;48.106;11.548;2023-05-16T04:16:52;7.00;;;5.38;;
29812;SDS011;16707;48.106;11.548;2023-05-16T04:19:22;8.20;;;5.78;;
29812;SDS011;16707;48.106;11.548;2023-05-16T04:21:57;9.27;;;6.57;;
29812;SDS011;16707;48.106;11.548;2023-05-16T04:24:24;7.30;;;5.78;;
29812;SDS011;16707;48.106;11.548;2023-05-16T04:26:54;6.65;;;5.35;;
29812;SDS011;16707;48.106;11.548;2023-05-16T04:29:23;7.85;;;5.75;;
29812;SDS011;16707;48.106;11.548;2023-05-16T04:31:51;8.65;;;6.03;;
29812;SDS011;16707;48.106;11.548;2023-05-16T04:34:20;9.38;;;6.32;;
29812;SDS011;16707;48.106;11.548;2023-05-16T04:36:52;11.00;;;6.28;;
29812;SDS011;16707;48.106;11.548;2023-05-16T04:39:25;9.52;;;6.93;;
29812;SDS011;16707;48.106;11.548;2023-05-16T04:44:25;10.30;;;6.38;;
29812;SDS011;16707;48.106;11.548;2023-05-16T04:46:52;10.02;;;6.70;;
29812;SDS011;16707;48.106;11.548;2023-05-16T04:49:23;9.32;;;6.72;;
29812;SDS011;16707;48.106;11.548;2023-05-16T04:51:55;8.95;;;6.45;;
29812;SDS011;16707;48.106;11.548;2023-05-16T04:54:27;10.45;;;6.47;;
29812;SDS011;16707;48.106;11.548;2023-05-16T04:56:57;10.02;;;5.80;;
29812;SDS011;16707;48.106;11.548;2023-05-16T04:59:27;10.23;;;6.25;;
29812;SDS011;16707;48.106;11.548;2023-05-16T05:01:57;8.60;;;5.75;;
29812;SDS011;16707;48.106;11.548;2023-05-16T05:04:28;8.57;;;6.30;;
29812;SDS011;16707;48.106;11.548;2023-05-16T05:06:55;10.13;;;6.40;;
29812;SDS011;16707;48.106;11.548;2023-05-16T05:09:32;11.30;;;7.00;;
29812;SDS011;16707;48.106;11.548;2023-05-16T05:11:59;9.07;;;6.30;;
29812;SDS011;16707;48.106;11.548;2023-05-16T05:14:34;10.02;;;5.82;;
29812;SDS011;16707;48.106;11.548;2023-05-16T05:17:01;11.82;;;7.05;;
29812;SDS011;16707;48.106;11.548;2023-05-16T05:19:31;10.57;;;6.78;;
29812;SDS011;16707;48.106;11.548;2023-05-16T05:22:01;8.70;;;6.07;;
29812;SDS011;16707;48.106;11.548;2023-05-16T05:24:31;10.80;;;7.05;;
29812;SDS011;16707;48.106;11.548;2023-05-16T05:27:02;9.20;;;6.57;;
29812;SDS011;16707;48.106;11.548;2023-05-16T05:29:32;8.70;;;6.05;;
29812;SDS011;16707;48.106;11.548;2023-05-16T05:31:59;10.07;;;7.45;;
29812;SDS011;16707;48.106;11.548;2023-05-16T05:34:26;8.52;;;6.63;;
29812;SDS011;16707;48.106;11.548;2023-05-16T05:37:04;10.57;;;6.78;;
29812;SDS011;16707;48.106;11.548;2023-05-16T05:39:30;10.52;;;8.27;;
29812;SDS011;16707;48.106;11.548;2023-05-16T05:41:59;9.35;;;7.00;;
29812;SDS011;16707;48.106;11.548;2023-05-16T05:44:28;9.65;;;7.63;;
29812;SDS011;16707;48.106;11.548;2023-05-16T05:46:55;11.50;;;7.78;;
29812;SDS011;16707;48.106;11.548;2023-05-16T05:49:22;10.07;;;7.13;;
29812;SDS011;16707;48.106;11.548;2023-05-16T05:51:52;8.55;;;6.80;;
29812;SDS011;16707;48.106;11.548;2023-05-16T05:54:19;11.18;;;7.43;;
29812;SDS011;16707;48.106;11.548;2023-05-16T05:56:46;13.48;;;7.63;;
29812;SDS011;16707;48.106;11.548;2023-05-16T05:59:21;11.45;;;7.22;;
29812;SDS011;16707;48.106;11.548;2023-05-16T06:01:51;12.70;;;7.65;;
29812;SDS011;16707;48.106;11.548;2023-05-16T06:04:32;10.77;;;7.13;;
29812;SDS011;16707;48.106;11.548;2023-05-16T06:06:59;10.55;;;7.75;;
29812;SDS011;16707;48.106;11.548;2023-05-16T06:09:29;10.23;;;7.07;;
29812;SDS011;16707;48.106;11.548;2023-05-16T06:11:56;10.50;;;7.50;;
29812;SDS011;16707;48.106;11.548;2023-05-16T06:14:26;11.52;;;8.10;;
29812;SDS011;16707;48.106;11.548;2023-05-16T06:16:53;12.00;;;8.35;;
29812;SDS011;16707;48.106;11.548;2023-05-16T06:19:27;12.02;;;7.25;;
29812;SDS011;16707;48.106;11.548;2023-05-16T06:21:54;10.38;;;7.38;;
29812;SDS011;16707;48.106;11.548;2023-05-16T06:24:21;11.73;;;7.78;;
29812;SDS011;16707;48.106;11.548;2023-05-16T06:26:48;12.30;;;8.48;;
29812;SDS011;16707;48.106;11.548;2023-05-16T06:29:16;13.32;;;8.38;;
29812;SDS011;16707;48.106;11.548;2023-05-16T06:31:44;12.32;;;7.88;;
29812;SDS011;16707;48.106;11.548;2023-05-16T06:34:12;9.60;;;7.63;;
29812;SDS011;16707;48.106;11.548;2023-05-16T06:36:39;11.98;;;8.57;;
29812;SDS011;16707;48.106;11.548;2023-05-16T06:39:15;10.68;;;7.32;;
29812;SDS011;16707;48.106;11.548;2023-05-16T06:41:45;10.70;;;7.13;;
29812;SDS011;16707;48.106;11.548;2023-05-16T06:44:17;9.60;;;7.50;;
29812;SDS011;16707;48.106;11.548;2023-05-16T06:46:45;8.95;;;7.60;;
29812;SDS011;16707;48.106;11.548;2023-05-16T06:49:13;8.90;;;7.13;;
29812;SDS011;16707;48.106;11.548;2023-05-16T06:51:44;11.20;;;8.00;;
29812;SDS011;16707;48.106;11.548;2023-05-16T06:54:14;10.40;;;7.87;;
29812;SDS011;16707;48.106;11.548;2023-05-16T06:56:41;13.65;;;8.02;;
29812;SDS011;16707;48.106;11.548;2023-05-16T06:59:11;9.68;;;7.50;;
29812;SDS011;16707;48.106;11.548;2023-05-16T07:01:38;11.02;;;7.32;;
29812;SDS011;16707;48.106;11.548;2023-05-16T07:04:06;10.45;;;7.50;;
29812;SDS011;16707;48.106;11.548;2023-05-16T07:06:33;11.60;;;7.25;;
29812;SDS011;16707;48.106;11.548;2023-05-16T07:09:00;12.02;;;8.40;;
29812;SDS011;16707;48.106;11.548;2023-05-16T07:11:27;12.02;;;7.72;;
29812;SDS011;16707;48.106;11.548;2023-05-16T07:13:54;11.43;;;7.68;;
29812;SDS011;16707;48.106;11.548;2023-05-16T07:16:21;10.77;;;8.23;;
29812;SDS011;16707;48.106;11.548;2023-05-16T07:18:52;11.70;;;8.48;;
29812;SDS011;16707;48.106;11.548;2023-05-16T07:21:20;12.50;;;8.10;;
29812;SDS011;16707;48.106;11.548;2023-05-16T07:23:50;10.35;;;8.27;;
29812;SDS011;16707;48.106;11.548;2023-05-16T07:26:18;9.15;;;7.90;;
29812;SDS011;16707;48.106;11.548;2023-05-16T07:28:47;10.05;;;7.72;;
29812;SDS011;16707;48.106;11.548;2023-05-16T07:31:15;10.93;;;7.90;;
29812;SDS011;16707;48.106;11.548;2023-05-16T07:33:42;10.65;;;8.15;;
29812;SDS011;16707;48.106;11.548;2023-05-16T07:36:13;11.20;;;8.00;;
29812;SDS011;16707;48.106;11.548;2023-05-16T07:38:44;10.98;;;7.88;;
29812;SDS011;16707;48.106;11.548;2023-05-16T07:41:11;12.57;;;8.60;;
29812;SDS011;16707;48.106;11.548;2023-05-16T07:43:38;13.73;;;8.98;;
29812;SDS011;16707;48.106;11.548;2023-05-16T07:46:06;12.40;;;9.05;;
29812;SDS011;16707;48.106;11.548;2023-05-16T07:48:33;12.55;;;9.60;;
29812;SDS011;16707;48.106;11.548;2023-05-16T07:51:01;13.20;;;8.63;;
29812;SDS011;16707;48.106;11.548;2023-05-16T07:53:29;13.43;;;9.80;;
29812;SDS011;16707;48.106;11.548;2023-05-16T07:55:57;14.20;;;9.43;;
29812;SDS011;16707;48.106;11.548;2023-05-16T07:58:27;15.25;;;10.95;;
29812;SDS011;16707;48.106;11.548;2023-05-16T08:00:54;12.48;;;9.07;;
29812;SDS011;16707;48.106;11.548;2023-05-16T08:03:21;13.68;;;9.43;;
29812;SDS011;16707;48.106;11.548;2023-05-16T08:05:48;16.15;;;9.82;;
29812;SDS011;16707;48.106;11.548;2023-05-16T08:08:15;11.95;;;9.63;;
29812;SDS011;16707;48.106;11.548;2023-05-16T08:10:45;13.40;;;9.55;;
29812;SDS011;16707;48.106;11.548;2023-05-16T08:13:14;14.13;;;10.40;;
29812;SDS011;16707;48.106;11.548;2023-05-16T08:15:40;16.63;;;9.38;;
29812;SDS011;16707;48.106;11.548;2023-05-16T08:18:11;13.98;;;9.48;;
29812;SDS011;16707;48.106;11.548;2023-05-16T08:20:41;13.55;;;9.70;;
29812;SDS011;16707;48.106;11.548;2023-05-16T08:23:10;16.63;;;11.15;;
29812;SDS011;16707;48.106;11.548;2023-05-16T08:25:45;13.25;;;9.55;;
29812;SDS011;16707;48.106;11.548;2023-05-16T08:28:14;15.82;;;10.18;;
29812;SDS011;16707;48.106;11.548;2023-05-16T08:30:41;12.73;;;9.65;;
29812;SDS011;16707;48.106;11.548;2023-05-16T08:33:08;14.35;;;9.68;;
29812;SDS011;16707;48.106;11.548;2023-05-16T08:35:40;11.93;;;9.40;;
29812;SDS011;16707;48.106;11.548;2023-05-16T08:38:08;13.20;;;9.30;;
29812;SDS011;16707;48.106;11.548;2023-05-16T08:40:35;13.20;;;9.32;;
29812;SDS011;16707;48.106;11.548;2023-05-16T08:43:02;15.23;;;9.48;;
29812;SDS011;16707;48.106;11.548;2023-05-16T08:45:31;14.18;;;9.25;;
29812;SDS011;16707;48.106;11.548;2023-05-16T08:47:59;16.25;;;11.20;;
29812;SDS011;16707;48.106;11.548;2023-05-16T08:50:28;19.27;;;13.20;;
29812;SDS011;16707;48.106;11.548;2023-05-16T08:53:00;11.00;;;8.73;;
29812;SDS011;16707;48.106;11.548;2023-05-16T08:55:32;13.38;;;9.15;;
29812;SDS011;16707;48.106;11.548;2023-05-16T08:58:00;12.10;;;9.15;;
29812;SDS011;16707;48.106;11.548;2023-05-16T09:00:27;13.98;;;9.25;;
29812;SDS011;16707;48.106;11.548;2023-05-16T09:02:57;13.05;;;9.18;;
29812;SDS011;16707;48.106;11.548;2023-05-16T09:05:24;12.88;;;9.02;;
29812;SDS011;16707;48.106;11.548;2023-05-16T09:07:55;13.80;;;10.02;;
29812;SDS011;16707;48.106;11.548;2023-05-16T09:10:22;13.20;;;9.73;;
29812;SDS011;16707;48.106;11.548;2023-05-16T09:12:50;12.95;;;9.57;;
29812;SDS011;16707;48.106;11.548;2023-05-16T09:15:17;14.80;;;8.82;;
29812;SDS011;16707;48.106;11.548;2023-05-16T09:17:47;12.38;;;9.88;;
29812;SDS011;16707;48.106;11.548;2023-05-16T09:20:16;13.48;;;9.88;;
29812;SDS011;16707;48.106;11.548;2023-05-16T09:22:51;14.10;;;11.02;;
29812;SDS011;16707;48.106;11.548;2023-05-16T09:25:18;13.38;;;10.20;;
29812;SDS011;16707;48.106;11.548;2023-05-16T09:27:46;12.20;;;9.95;;
29812;SDS011;16707;48.106;11.548;2023-05-16T09:30:15;13.60;;;9.95;;
29812;SDS011;16707;48.106;11.548;2023-05-16T09:32:42;14.60;;;9.60;;
29812;SDS011;16707;48.106;11.548;2023-05-16T09:35:13;11.95;;;9.70;;
29812;SDS011;16707;48.106;11.548;2023-05-16T09:37:43;12.18;;;9.10;;
29812;SDS011;16707;48.106;11.548;2023-05-16T09:40:11;11.65;;;9.27;;
29812;SDS011;16707;48.106;11.548;2023-05-16T09:42:39;11.63;;;8.80;;
29812;SDS011;16707;48.106;11.548;2023-05-16T09:45:06;12.60;;;9.77;;
29812;SDS011;16707;48.106;11.548;2023-05-16T09:47:38;11.55;;;8.95;;
29812;SDS011;16707;48.106;11.548;2023-05-16T09:50:10;10.85;;;8.82;;
29812;SDS011;16707;48.106;11.548;2023-05-16T09:52:44;10.45;;;8.70;;
29812;SDS011;16707;48.106;11.548;2023-05-16T09:55:11;10.48;;;8.25;;
29812;SDS011;16707;48.106;11.548;2023-05-16T09:57:47;11.15;;;9.23;;
29812;SDS011;16707;48.106;11.548;2023-05-16T10:00:15;12.00;;;9.75;;
29812;SDS011;16707;48.106;11.548;2023-05-16T10:02:43;12.07;;;9.18;;
29812;SDS011;16707;48.106;11.548;2023-05-16T10:05:10;12.40;;;9.65;;
29812;SDS011;16707;48.106;11.548;2023-05-16T10:07:38;11.02;;;9.07;;
29812;SDS011;16707;48.106;11.548;2023-05-16T10:10:09;10.82;;;8.75;;
29812;SDS011;16707;48.106;11.548;2023-05-16T10:12:41;10.10;;;8.70;;
29812;SDS011;16707;48.106;11.548;2023-05-16T10:15:09;10.75;;;9.38;;
29812;SDS011;16707;48.106;11.548;2023-05-16T10:17:38;12.13;;;9.70;;
29812;SDS011;16707;48.106;11.548;2023-05-16T10:20:10;12.52;;;9.52;;
29812;SDS011;16707;48.106;11.548;2023-05-16T10:22:40;10.30;;;8.65;;
29812;SDS011;16707;48.106;11.548;2023-05-16T10:25:11;12.27;;;9.52;;
29812;SDS011;16707;48.106;11.548;2023-05-16T10:27:50;12.30;;;9.95;;
29812;SDS011;16707;48.106;11.548;2023-05-16T10:30:18;11.93;;;9.95;;
29812;SDS011;16707;48.106;11.548;2023-05-16T10:32:47;12.35;;;9.73;;
29812;SDS011;16707;48.106;11.548;2023-05-16T10:35:17;13.68;;;9.52;;
29812;SDS011;16707;48.106;11.548;2023-05-16T10:37:45;12.48;;;9.77;;
29812;SDS011;16707;48.106;11.548;2023-05-16T10:40:18;13.93;;;10.50;;
29812;SDS011;16707;48.106;11.548;2023-05-16T10:42:53;11.55;;;10.25;;
29812;SDS011;16707;48.106;11.548;2023-05-16T10:45:28;12.73;;;10.68;;
29812;SDS011;16707;48.106;11.548;2023-05-16T10:47:56;15.35;;;11.25;;
29812;SDS011;16707;48.106;11.548;2023-05-16T10:50:34;15.85;;;11.02;;
29812;SDS011;16707;48.106;11.548;2023-05-16T10:53:16;12.57;;;10.82;;
29812;SDS011;16707;48.106;11.548;2023-05-16T10:58:39;12.07;;;9.88;;
29812;SDS011;16707;48.106;11.548;2023-05-16T11:01:18;14.10;;;11.10;;
29812;SDS011;16707;48.106;11.548;2023-05-16T11:04:06;14.77;;;11.38;;
29812;SDS011;16707;48.106;11.548;2023-05-16T11:06:42;14.25;;;11.15;;
29812;SDS011;16707;48.106;11.548;2023-05-16T11:09:24;16.17;;;12.27;;
29812;SDS011;16707;48.106;11.548;2023-05-16T11:11:54;14.90;;;12.15;;
29812;SDS011;16707;48.106;11.548;2023-05-16T11:14:24;17.15;;;12.35;;
29812;SDS011;16707;48.106;11.548;2023-05-16T11:17:02;15.98;;;11.65;;
29812;SDS011;16707;48.106;11.548;2023-05-16T11:19:33;17.75;;;12.40;;
29812;SDS011;16707;48.106;11.548;2023-05-16T11:22:12;15.57;;;11.65;;
29812;SDS011;16707;48.106;11.548;2023-05-16T11:24:50;20.75;;;11.32;;
29812;SDS011;16707;48.106;11.548;2023-05-16T11:27:24;14.85;;;11.13;;
29812;SDS011;16707;48.106;11.548;2023-05-16T11:29:57;16.80;;;12.23;;
29812;SDS011;16707;48.106;11.548;2023-05-16T11:32:26;14.20;;;10.90;;
29812;SDS011;16707;48.106;11.548;2023-05-16T11:34:53;15.43;;;10.98;;
29812;SDS011;16707;48.106;11.548;2023-05-16T11:37:24;15.10;;;10.88;;
29812;SDS011;16707;48.106;11.548;2023-05-16T11:39:57;15.40;;;11.48;;
29812;SDS011;16707;48.106;11.548;2023-05-16T11:42:29;12.15;;;10.02;;
29812;SDS011;16707;48.106;11.548;2023-05-16T11:45:02;12.27;;;9.00;;
29812;SDS011;16707;48.106;11.548;2023-05-16T11:47:31;11.73;;;9.23;;
29812;SDS011;16707;48.106;11.548;2023-05-16T11:49:59;10.60;;;9.50;;
29812;SDS011;16707;48.106;11.548;2023-05-16T11:52:28;12.55;;;10.05;;
29812;SDS011;16707;48.106;11.548;2023-05-16T11:54:56;13.25;;;8.55;;
29812;SDS011;16707;48.106;11.548;2023-05-16T11:57:27;11.05;;;8.60;;
29812;SDS011;16707;48.106;11.548;2023-05-16T12:00:00;10.50;;;8.48;;
29812;SDS011;16707;48.106;11.548;2023-05-16T12:02:30;9.90;;;7.57;;
29812;SDS011;16707;48.106;11.548;2023-05-16T12:04:57;12.40;;;8.63;;
29812;SDS011;16707;48.106;11.548;2023-05-16T12:07:32;10.80;;;7.63;;
29812;SDS011;16707;48.106;11.548;2023-05-16T12:10:03;10.63;;;7.15;;
29812;SDS011;16707;48.106;11.548;2023-05-16T12:12:34;9.50;;;7.43;;
29812;SDS011;16707;48.106;11.548;2023-05-16T12:15:03;10.15;;;7.78;;
29812;SDS011;16707;48.106;11.548;2023-05-16T12:17:32;8.82;;;7.70;;
29812;SDS011;16707;48.106;11.548;2023-05-16T12:20:00;11.45;;;8.43;;
29812;SDS011;16707;48.106;11.548;2023-05-16T12:22:30;11.55;;;9.23;;
29812;SDS011;16707;48.106;11.548;2023-05-16T12:24:57;11.85;;;9.18;;
29812;SDS011;16707;48.106;11.548;2023-05-16T12:27:25;13.20;;;10.20;;
29812;SDS011;16707;48.106;11.548;2023-05-16T12:29:54;14.25;;;9.35;;
29812;SDS011;16707;48.106;11.548;2023-05-16T12:32:24;13.77;;;9.45;;
29812;SDS011;16707;48.106;11.548;2023-05-16T12:34:51;14.18;;;9.40;;
29812;SDS011;16707;48.106;11.548;2023-05-16T12:37:20;12.23;;;9.20;;
29812;SDS011;16707;48.106;11.548;2023-05-16T12:39:47;13.07;;;9.70;;
29812;SDS011;16707;48.106;11.548;2023-05-16T12:42:14;11.63;;;10.38;;
29812;SDS011;16707;48.106;11.548;2023-05-16T12:44:43;12.13;;;9.75;;
29812;SDS011;16707;48.106;11.548;2023-05-16T12:47:14;11.02;;;9.35;;
29812;SDS011;16707;48.106;11.548;2023-05-16T12:49:45;11.85;;;9.85;;
29812;SDS011;16707;48.106;11.548;2023-05-16T12:52:16;11.33;;;9.30;;
29812;SDS011;16707;48.106;11.548;2023-05-16T12:54:44;11.77;;;9.65;;
29812;SDS011;16707;48.106;11.548;2023-05-16T12:57:11;13.60;;;10.27;;
29812;SDS011;16707;48.106;11.548;2023-05-16T12:59:39;11.70;;;10.23;;
29812;SDS011;16707;48.106;11.548;2023-05-16T13:02:06;12.57;;;10.50;;
29812;SDS011;16707;48.106;11.548;2023-05-16T13:04:37;14.95;;;11.23;;
29812;SDS011;16707;48.106;11.548;2023-05-16T13:07:06;14.75;;;11.20;;
29812;SDS011;16707;48.106;11.548;2023-05-16T13:09:36;22.02;;;16.20;;
29812;SDS011;16707;48.106;11.548;2023-05-16T13:12:03;15.10;;;11.13;;
29812;SDS011;16707;48.106;11.548;2023-05-16T13:14:31;13.30;;;11.38;;
29812;SDS011;16707;48.106;11.548;2023-05-16T13:16:58;13.95;;;11.18;;
29812;SDS011;16707;48.106;11.548;2023-05-16T13:19:25;14.43;;;11.38;;
29812;SDS011;16707;48.106;11.548;2023-05-16T13:21:53;13.77;;;11.45;;
29812;SDS011;16707;48.106;11.548;2023-05-16T13:24:21;14.98;;;11.38;;
29812;SDS011;16707;48.106;11.548;2023-05-16T13:26:48;13.50;;;11.25;;
29812;SDS011;16707;48.106;11.548;2023-05-16T13:29:15;13.60;;;11.43;;
29812;SDS011;16707;48.106;11.548;2023-05-16T13:31:42;15.77;;;12.40;;
29812;SDS011;16707;48.106;11.548;2023-05-16T13:34:09;16.10;;;11.90;;
29812;SDS011;16707;48.106;11.548;2023-05-16T13:36:36;18.05;;;12.75;;
29812;SDS011;16707;48.106;11.548;2023-05-16T13:39:05;16.85;;;12.90;;
29812;SDS011;16707;48.106;11.548;2023-05-16T13:41:32;15.23;;;11.40;;
29812;SDS011;16707;48.106;11.548;2023-05-16T13:44:01;10.85;;;8.32;;
29812;SDS011;16707;48.106;11.548;2023-05-16T13:46:28;9.00;;;8.05;;
29812;SDS011;16707;48.106;11.548;2023-05-16T13:48:57;10.77;;;8.52;;
29812;SDS011;16707;48.106;11.548;2023-05-16T13:51:24;18.30;;;9.20;;
29812;SDS011;16707;48.106;11.548;2023-05-16T13:53:51;13.20;;;9.13;;
29812;SDS011;16707;48.106;11.548;2023-05-16T13:56:23;13.30;;;9.70;;
29812;SDS011;16707;48.106;11.548;2023-05-16T13:58:50;16.33;;;10.52;;
29812;SDS011;16707;48.106;11.548;2023-05-16T14:01:17;22.00;;;10.57;;
29812;SDS011;16707;48.106;11.548;2023-05-16T14:03:45;15.00;;;10.30;;
29812;SDS011;16707;48.106;11.548;2023-05-16T14:06:13;14.77;;;9.98;;
29812;SDS011;16707;48.106;11.548;2023-05-16T14:08:42;13.82;;;10.52;;
29812;SDS011;16707;48.106;11.548;2023-05-16T14:11:10;13.60;;;10.77;;
29812;SDS011;16707;48.106;11.548;2023-05-16T14:13:40;15.27;;;11.40;;
29812;SDS011;16707;48.106;11.548;2023-05-16T14:16:07;16.45;;;12.57;;
29812;SDS011;16707;48.106;11.548;2023-05-16T14:18:35;14.75;;;11.05;;
29812;SDS011;16707;48.106;11.548;2023-05-16T14:21:02;15.93;;;11.60;;
29812;SDS011;16707;48.106;11.548;2023-05-16T14:23:29;15.73;;;11.63;;
29812;SDS011;16707;48.106;11.548;2023-05-16T14:25:58;16.45;;;11.70;;
29812;SDS011;16707;48.106;11.548;2023-05-16T14:28:30;13.85;;;11.40;;
29812;SDS011;16707;48.106;11.548;2023-05-16T14:30:59;15.63;;;11.10;;
29812;SDS011;16707;48.106;11.548;2023-05-16T14:33:26;16.02;;;11.50;;
29812;SDS011;16707;48.106;11.548;2023-05-16T14:35:55;16.33;;;10.25;;
29812;SDS011;16707;48.106;11.548;2023-05-16T14:38:22;18.10;;;12.07;;
29812;SDS011;16707;48.106;11.548;2023-05-16T14:40:49;15.45;;;9.80;;
29812;SDS011;16707;48.106;11.548;2023-05-16T14:43:16;13.98;;;9.45;;
29812;SDS011;16707;48.106;11.548;2023-05-16T14:45:44;14.73;;;9.93;;
29812;SDS011;16707;48.106;11.548;2023-05-16T14:48:12;13.93;;;10.15;;
29812;SDS011;16707;48.106;11.548;2023-05-16T14:50:41;14.13;;;10.32;;